createdAt,value
2023-04-09T00:00:08.173Z,55.60
2023-04-09T00:02:14.153Z,55.60
2023-04-09T00:04:15.910Z,55.60
2023-04-09T00:06:17.665Z,55.60
2023-04-09T00:08:19.324Z,55.50
2023-04-09T00:10:21.020Z,55.60
2023-04-09T00:12:22.671Z,55.70
2023-04-09T00:14:24.572Z,55.60
2023-04-09T00:16:26.325Z,55.60
2023-04-09T00:18:27.957Z,55.60
2023-04-09T00:20:29.630Z,55.60
2023-04-09T00:22:31.316Z,55.70
2023-04-09T00:24:32.977Z,55.70
2023-04-09T00:26:35.757Z,55.70
2023-04-09T00:28:37.520Z,55.70
2023-04-09T00:30:41.082Z,55.70
2023-04-09T00:32:42.789Z,55.80
2023-04-09T00:34:44.463Z,55.80
2023-04-09T00:36:46.128Z,55.70
2023-04-09T00:38:48.586Z,55.70
2023-04-09T00:40:50.729Z,55.80
2023-04-09T00:42:52.421Z,55.80
2023-04-09T00:44:54.067Z,55.80
2023-04-09T00:46:56.476Z,55.80
2023-04-09T00:48:58.442Z,55.80
2023-04-09T00:51:00.351Z,55.70
2023-04-09T00:53:02.192Z,55.80
2023-04-09T00:55:04.777Z,55.80
2023-04-09T00:57:06.687Z,55.90
2023-04-09T00:59:08.378Z,55.90
2023-04-09T01:01:10.335Z,56.10
2023-04-09T01:03:12.284Z,56.10
2023-04-09T01:05:14.366Z,56.20
2023-04-09T01:07:31.068Z,56.10
2023-04-09T01:09:37.510Z,56.10
2023-04-09T01:11:39.297Z,56.20
2023-04-09T01:13:41.547Z,56.20
2023-04-09T01:15:46.633Z,56.10
2023-04-09T01:17:54.122Z,56.20
2023-04-09T01:20:01.668Z,56.20
2023-04-09T01:22:05.711Z,56.20
2023-04-09T01:24:20.171Z,56.20
2023-04-09T01:26:41.247Z,56.10
2023-04-09T01:28:44.256Z,56.20
2023-04-09T01:30:49.413Z,56.30
2023-04-09T01:32:52.524Z,56.30
2023-04-09T01:34:54.923Z,56.30
2023-04-09T01:36:57.851Z,56.40
2023-04-09T01:39:00.710Z,56.40
2023-04-09T01:41:03.203Z,56.40
2023-04-09T01:43:06.464Z,56.40
2023-04-09T01:45:09.795Z,56.50
2023-04-09T01:47:12.423Z,56.60
2023-04-09T01:49:14.741Z,56.80
2023-04-09T01:51:17.531Z,56.60
2023-04-09T01:53:19.539Z,56.70
2023-04-09T01:55:21.355Z,56.70
2023-04-09T01:57:23.108Z,56.60
2023-04-09T01:59:24.740Z,56.60
2023-04-09T02:01:32.080Z,56.60
2023-04-09T02:03:42.369Z,56.80
2023-04-09T02:05:52.933Z,56.90
2023-04-09T02:07:56.127Z,57.00
2023-04-09T02:09:59.469Z,56.80
2023-04-09T02:12:03.042Z,57.10
2023-04-09T02:14:04.869Z,57.20
2023-04-09T02:16:07.147Z,57.00
2023-04-09T02:18:22.444Z,57.20
2023-04-09T02:20:24.686Z,57.00
2023-04-09T02:22:26.327Z,57.10
2023-04-09T02:24:28.042Z,57.00
2023-04-09T02:26:29.709Z,57.00
2023-04-09T02:28:33.085Z,57.00
2023-04-09T02:30:34.786Z,56.90
2023-04-09T02:32:36.441Z,57.00
2023-04-09T02:34:38.209Z,57.10
2023-04-09T02:36:40.263Z,57.00
2023-04-09T02:38:42.442Z,56.90
2023-04-09T02:40:44.157Z,56.90
2023-04-09T02:42:45.849Z,56.90
2023-04-09T02:44:47.506Z,57.20
2023-04-09T02:46:50.214Z,57.20
2023-04-09T02:48:52.054Z,57.20
2023-04-09T02:50:53.936Z,57.10
2023-04-09T02:52:55.784Z,57.10
2023-04-09T02:54:57.493Z,57.10
2023-04-09T02:56:59.137Z,57.20
2023-04-09T02:59:00.816Z,57.10
2023-04-09T03:01:02.719Z,57.10
2023-04-09T03:03:04.590Z,57.20
2023-04-09T03:05:06.615Z,57.20
2023-04-09T03:07:08.305Z,57.20
2023-04-09T03:09:09.914Z,57.30
2023-04-09T03:11:11.520Z,57.20
2023-04-09T03:13:13.106Z,57.20
2023-04-09T03:15:14.855Z,57.20
2023-04-09T03:17:16.462Z,57.30
2023-04-09T03:19:18.200Z,57.30
2023-04-09T03:21:20.132Z,57.50
2023-04-09T03:23:24.468Z,57.40
2023-04-09T03:25:26.571Z,57.50
2023-04-09T03:27:29.844Z,57.50
2023-04-09T03:29:32.490Z,57.50
2023-04-09T03:31:34.983Z,57.50
2023-04-09T03:33:36.690Z,57.50
2023-04-09T03:35:38.431Z,57.70
2023-04-09T03:37:40.539Z,57.70
2023-04-09T03:39:50.118Z,57.60
2023-04-09T03:41:51.832Z,57.60
2023-04-09T03:43:53.710Z,57.60
2023-04-09T03:45:59.297Z,57.60
2023-04-09T03:48:02.221Z,57.60
2023-04-09T03:50:04.007Z,57.60
2023-04-09T03:52:18.649Z,57.70
2023-04-09T03:54:29.364Z,57.60
2023-04-09T03:56:32.540Z,58.40
2023-04-09T03:58:34.532Z,57.60
2023-04-09T04:00:36.276Z,57.70
2023-04-09T04:02:58.380Z,57.60
2023-04-09T04:05:22.626Z,57.70
2023-04-09T04:07:24.609Z,57.70
2023-04-09T04:09:31.293Z,57.90
2023-04-09T04:11:38.412Z,57.70
2023-04-09T04:13:40.209Z,57.80
2023-04-09T04:15:43.983Z,57.70
2023-04-09T04:17:48.213Z,57.70
2023-04-09T04:19:59.349Z,57.80
2023-04-09T04:22:01.995Z,57.80
2023-04-09T04:24:06.801Z,57.80
2023-04-09T04:26:12.184Z,57.80
2023-04-09T04:28:15.320Z,57.70
2023-04-09T04:30:17.562Z,57.90
2023-04-09T04:32:30.759Z,57.90
2023-04-09T04:34:37.803Z,57.90
2023-04-09T04:36:53.166Z,57.80
2023-04-09T04:38:55.551Z,57.80
2023-04-09T04:41:23.597Z,57.70
2023-04-09T04:43:38.862Z,57.80
2023-04-09T04:45:40.601Z,57.80
2023-04-09T04:47:46.387Z,57.80
2023-04-09T04:49:48.966Z,57.80
2023-04-09T04:51:52.180Z,57.70
2023-04-09T04:53:53.949Z,57.70
2023-04-09T04:55:55.977Z,58.00
2023-04-09T04:58:01.230Z,57.90
2023-04-09T05:00:08.482Z,57.90
2023-04-09T05:02:11.590Z,57.90
2023-04-09T05:04:47.980Z,57.90
2023-04-09T05:06:52.522Z,57.90
2023-04-09T05:09:01.480Z,57.90
2023-04-09T05:11:11.686Z,57.80
2023-04-09T05:13:14.000Z,57.80
2023-04-09T05:15:16.240Z,57.70
2023-04-09T05:17:17.891Z,58.00
2023-04-09T05:19:20.866Z,57.90
2023-04-09T05:21:24.676Z,58.00
2023-04-09T05:23:28.870Z,57.90
2023-04-09T05:25:30.608Z,58.00
2023-04-09T05:27:32.902Z,58.00
2023-04-09T05:29:36.372Z,58.00
2023-04-09T05:31:42.945Z,58.00
2023-04-09T05:33:53.172Z,58.00
2023-04-09T05:36:00.282Z,58.00
2023-04-09T05:38:02.020Z,58.00
2023-04-09T05:40:04.326Z,58.20
2023-04-09T05:42:06.097Z,58.10
2023-04-09T05:44:26.423Z,58.40
2023-04-09T05:46:35.236Z,58.30
2023-04-09T05:48:37.105Z,58.30
2023-04-09T05:50:51.447Z,58.60
2023-04-09T05:52:55.837Z,58.70
2023-04-09T05:55:03.439Z,58.60
2023-04-09T05:57:15.704Z,58.60
2023-04-09T05:59:22.634Z,58.60
2023-04-09T06:01:24.283Z,59.00
2023-04-09T06:03:26.226Z,58.80
2023-04-09T06:05:28.724Z,58.80
2023-04-09T06:07:30.706Z,58.70
2023-04-09T06:09:32.333Z,58.80
2023-04-09T06:11:34.320Z,58.80
2023-04-09T06:13:35.994Z,58.90
2023-04-09T06:15:38.554Z,59.00
2023-04-09T06:17:40.406Z,58.90
2023-04-09T06:19:42.073Z,58.90
2023-04-09T06:21:43.815Z,58.90
2023-04-09T06:23:45.579Z,59.00
2023-04-09T06:25:47.240Z,58.80
2023-04-09T06:27:48.982Z,58.80
2023-04-09T06:29:50.644Z,58.80
2023-04-09T06:31:52.688Z,58.80
2023-04-09T06:33:54.962Z,58.80
2023-04-09T06:35:56.948Z,58.80
2023-04-09T06:37:58.653Z,58.80
2023-04-09T06:40:01.382Z,58.90
2023-04-09T06:42:03.941Z,58.80
2023-04-09T06:44:25.244Z,58.80
2023-04-09T06:46:27.059Z,58.80
2023-04-09T06:48:28.717Z,58.70
2023-04-09T06:50:30.420Z,58.80
2023-04-09T06:52:32.069Z,58.70
2023-04-09T06:54:33.694Z,58.70
2023-04-09T06:56:35.435Z,58.80
2023-04-09T06:58:37.166Z,58.70
2023-04-09T07:00:38.809Z,58.70
2023-04-09T07:02:41.144Z,59.40
2023-04-09T07:04:43.123Z,58.70
2023-04-09T07:06:44.782Z,58.60
2023-04-09T07:08:47.175Z,58.50
2023-04-09T07:10:49.003Z,58.40
2023-04-09T07:12:50.883Z,58.50
2023-04-09T07:14:52.539Z,58.40
2023-04-09T07:16:54.201Z,58.30
2023-04-09T07:18:55.841Z,58.10
2023-04-09T07:20:57.611Z,58.20
2023-04-09T07:22:59.267Z,58.30
2023-04-09T07:25:01.035Z,58.30
2023-04-09T07:27:06.280Z,58.20
2023-04-09T07:29:08.086Z,58.10
2023-04-09T07:31:09.737Z,58.20
2023-04-09T07:33:11.450Z,58.20
2023-04-09T07:35:13.100Z,58.00
2023-04-09T07:37:14.740Z,58.00
2023-04-09T07:39:17.305Z,58.00
2023-04-09T07:41:18.973Z,58.00
2023-04-09T07:43:21.482Z,58.00
2023-04-09T07:45:24.235Z,57.90
2023-04-09T07:47:25.983Z,57.90
2023-04-09T07:49:27.682Z,57.80
2023-04-09T07:51:29.303Z,57.70
2023-04-09T07:53:31.033Z,57.50
2023-04-09T07:55:32.702Z,57.50
2023-04-09T07:57:34.455Z,57.50
2023-04-09T07:59:36.406Z,57.50
2023-04-09T08:01:38.296Z,57.60
2023-04-09T08:03:40.114Z,57.40
2023-04-09T08:05:42.244Z,57.30
2023-04-09T08:07:43.939Z,57.30
2023-04-09T08:09:46.010Z,57.30
2023-04-09T08:11:48.236Z,57.30
2023-04-09T08:13:49.886Z,57.20
2023-04-09T08:15:51.620Z,57.10
2023-04-09T08:17:53.271Z,57.10
2023-04-09T08:19:54.942Z,57.70
2023-04-09T08:21:56.601Z,57.00
2023-04-09T08:24:01.345Z,57.00
2023-04-09T08:26:03.365Z,57.30
2023-04-09T08:28:05.454Z,56.80
2023-04-09T08:30:07.591Z,56.80
2023-04-09T08:32:09.276Z,56.70
2023-04-09T08:34:11.063Z,56.70
2023-04-09T08:36:12.765Z,56.70
2023-04-09T08:38:15.734Z,56.70
2023-04-09T08:40:17.484Z,56.60
2023-04-09T08:42:23.889Z,56.60
2023-04-09T08:44:28.858Z,56.60
2023-04-09T08:46:30.521Z,56.60
2023-04-09T08:48:32.323Z,56.40
2023-04-09T08:50:34.131Z,56.50
2023-04-09T08:52:36.704Z,56.50
2023-04-09T08:54:38.510Z,56.40
2023-04-09T08:56:40.338Z,56.30
2023-04-09T08:58:45.924Z,56.30
2023-04-09T09:00:47.638Z,56.40
2023-04-09T09:03:04.097Z,56.40
2023-04-09T09:05:06.608Z,56.20
2023-04-09T09:07:08.327Z,56.20
2023-04-09T09:09:09.975Z,56.10
2023-04-09T09:11:18.830Z,56.30
2023-04-09T09:13:24.813Z,56.30
2023-04-09T09:15:27.385Z,56.30
2023-04-09T09:17:29.132Z,56.30
2023-04-09T09:19:33.399Z,56.40
2023-04-09T09:21:36.465Z,56.10
2023-04-09T09:23:38.396Z,55.90
2023-04-09T09:25:43.421Z,56.10
2023-04-09T09:27:45.249Z,55.80
2023-04-09T09:29:46.940Z,55.80
2023-04-09T09:31:49.828Z,55.90
2023-04-09T09:33:51.836Z,55.80
2023-04-09T09:35:54.339Z,55.80
2023-04-09T09:38:03.776Z,55.70
2023-04-09T09:40:05.751Z,55.70
2023-04-09T09:42:08.344Z,55.20
2023-04-09T09:44:10.711Z,55.30
2023-04-09T09:46:12.420Z,55.50
2023-04-09T09:48:14.603Z,55.30
2023-04-09T09:50:16.213Z,55.40
2023-04-09T09:52:21.064Z,55.20
2023-04-09T09:54:23.443Z,55.20
2023-04-09T09:56:32.467Z,54.90
2023-04-09T09:58:40.685Z,54.90
2023-04-09T10:00:43.521Z,54.90
2023-04-09T10:02:51.230Z,54.80
2023-04-09T10:04:53.542Z,54.70
2023-04-09T10:06:56.735Z,54.40
2023-04-09T10:09:00.779Z,54.40
2023-04-09T10:11:02.592Z,54.50
2023-04-09T10:13:06.116Z,54.50
2023-04-09T10:15:09.262Z,54.30
2023-04-09T10:17:11.286Z,54.10
2023-04-09T10:19:14.985Z,54.00
2023-04-09T10:21:26.622Z,54.00
2023-04-09T10:23:33.755Z,53.80
2023-04-09T10:25:35.636Z,53.90
2023-04-09T10:27:37.380Z,53.90
2023-04-09T10:29:43.346Z,53.60
2023-04-09T10:31:45.855Z,53.50
2023-04-09T10:33:47.542Z,53.60
2023-04-09T10:35:49.253Z,53.80
2023-04-09T10:37:50.951Z,54.00
2023-04-09T10:39:53.609Z,53.50
2023-04-09T10:41:57.084Z,53.70
2023-04-09T10:43:58.898Z,53.50
2023-04-09T10:46:00.687Z,53.20
2023-04-09T10:48:02.843Z,53.20
2023-04-09T10:50:24.129Z,52.80
2023-04-09T10:52:30.140Z,53.20
2023-04-09T10:54:34.943Z,53.30
2023-04-09T10:56:36.620Z,53.30
2023-04-09T10:58:38.266Z,53.30
2023-04-09T11:00:44.047Z,52.10
2023-04-09T11:02:56.061Z,52.80
2023-04-09T11:05:01.031Z,52.80
2023-04-09T11:07:05.292Z,52.90
2023-04-09T11:09:06.909Z,52.80
2023-04-09T11:11:08.583Z,53.10
2023-04-09T11:13:16.972Z,52.90
2023-04-09T11:15:19.207Z,52.80
2023-04-09T11:17:21.240Z,52.60
2023-04-09T11:19:22.999Z,52.80
2023-04-09T11:21:27.775Z,52.80
2023-04-09T11:23:29.520Z,52.90
2023-04-09T11:25:31.904Z,52.70
2023-04-09T11:27:37.668Z,52.90
2023-04-09T11:29:39.344Z,53.40
2023-04-09T11:31:43.397Z,52.80
2023-04-09T11:33:47.698Z,52.70
2023-04-09T11:35:49.404Z,52.70
2023-04-09T11:37:52.415Z,52.50
2023-04-09T11:39:56.804Z,53.00
2023-04-09T11:41:59.516Z,53.00
2023-04-09T11:44:05.037Z,52.60
2023-04-09T11:46:07.967Z,52.50
2023-04-09T11:48:10.120Z,52.70
2023-04-09T11:50:12.404Z,52.40
2023-04-09T11:52:16.425Z,52.60
2023-04-09T11:54:18.394Z,52.40
2023-04-09T11:56:20.571Z,52.60
2023-04-09T11:58:23.077Z,52.60
2023-04-09T12:00:25.124Z,52.50
2023-04-09T12:02:26.954Z,52.50
2023-04-09T12:04:28.718Z,52.70
2023-04-09T12:06:30.484Z,52.60
2023-04-09T12:08:34.972Z,51.90
2023-04-09T12:10:38.066Z,51.30
2023-04-09T12:12:43.524Z,52.00
2023-04-09T12:14:48.123Z,52.10
2023-04-09T12:16:52.850Z,51.40
2023-04-09T12:18:55.770Z,51.40
2023-04-09T12:20:57.397Z,52.10
2023-04-09T12:23:00.339Z,52.10
2023-04-09T12:25:02.032Z,51.80
2023-04-09T12:27:03.669Z,51.90
2023-04-09T12:29:05.322Z,52.00
2023-04-09T12:31:09.593Z,52.10
2023-04-09T12:33:11.594Z,51.10
2023-04-09T12:35:13.692Z,51.80
2023-04-09T12:37:15.601Z,52.10
2023-04-09T12:39:17.258Z,51.90
2023-04-09T12:41:18.884Z,52.20
2023-04-09T12:43:20.670Z,51.00
2023-04-09T12:45:22.452Z,50.90
2023-04-09T12:47:24.230Z,49.90
2023-04-09T12:49:25.911Z,50.50
2023-04-09T12:51:28.460Z,51.50
2023-04-09T12:53:30.293Z,51.80
2023-04-09T12:55:32.316Z,51.10
2023-04-09T12:57:34.389Z,51.20
2023-04-09T12:59:36.033Z,51.50
2023-04-09T13:01:37.853Z,51.60
2023-04-09T13:03:41.451Z,51.20
2023-04-09T13:05:43.494Z,51.60
2023-04-09T13:07:45.682Z,51.90
2023-04-09T13:09:48.861Z,51.50
2023-04-09T13:11:50.576Z,51.30
2023-04-09T13:13:52.375Z,51.10
2023-04-09T13:15:54.176Z,50.60
2023-04-09T13:17:56.056Z,50.20
2023-04-09T13:19:57.744Z,50.20
2023-04-09T13:21:59.422Z,50.40
2023-04-09T13:24:01.087Z,50.10
2023-04-09T13:26:02.726Z,49.90
2023-04-09T13:28:04.407Z,49.40
2023-04-09T13:30:06.505Z,50.10
2023-04-09T13:32:08.291Z,50.10
2023-04-09T13:34:10.003Z,49.70
2023-04-09T13:36:12.580Z,49.50
2023-04-09T13:38:14.261Z,48.80
2023-04-09T13:40:16.345Z,48.20
2023-04-09T13:42:18.345Z,48.90
2023-04-09T13:44:20.006Z,49.30
2023-04-09T13:46:22.023Z,47.80
2023-04-09T13:48:24.086Z,48.30
2023-04-09T13:50:26.366Z,46.30
2023-04-09T13:52:29.713Z,46.90
2023-04-09T13:54:32.061Z,48.30
2023-04-09T13:56:33.830Z,47.30
2023-04-09T13:58:35.785Z,48.10
2023-04-09T14:00:37.579Z,48.60
2023-04-09T14:02:39.664Z,47.60
2023-04-09T14:04:41.624Z,47.30
2023-04-09T14:06:43.465Z,45.20
2023-04-09T14:08:45.322Z,44.70
2023-04-09T14:10:47.016Z,44.60
2023-04-09T14:12:48.667Z,45.60
2023-04-09T14:14:50.299Z,45.00
2023-04-09T14:16:52.033Z,45.70
2023-04-09T14:18:53.898Z,44.90
2023-04-09T14:20:55.704Z,45.10
2023-04-09T14:22:57.344Z,46.10
2023-04-09T14:24:59.383Z,46.50
2023-04-09T14:27:02.804Z,46.70
2023-04-09T14:29:04.477Z,46.60
2023-04-09T14:31:06.416Z,46.70
2023-04-09T14:33:08.253Z,46.50
2023-04-09T14:35:10.218Z,45.70
2023-04-09T14:37:12.311Z,46.00
2023-04-09T14:39:14.034Z,46.30
2023-04-09T14:41:16.548Z,46.50
2023-04-09T14:43:18.321Z,46.20
2023-04-09T14:45:20.040Z,46.50
2023-04-09T14:47:21.819Z,45.80
2023-04-09T14:49:23.760Z,46.50
2023-04-09T14:51:27.077Z,45.90
2023-04-09T14:53:28.738Z,46.40
2023-04-09T14:55:30.592Z,46.20
2023-04-09T14:57:32.604Z,45.50
2023-04-09T14:59:34.547Z,45.00
2023-04-09T15:01:36.385Z,44.80
2023-04-09T15:03:38.382Z,44.90
2023-04-09T15:05:40.801Z,45.40
2023-04-09T15:07:43.740Z,44.60
2023-04-09T15:09:45.544Z,44.40
2023-04-09T15:11:47.207Z,44.40
2023-04-09T15:13:48.935Z,44.50
2023-04-09T15:15:50.727Z,44.70
2023-04-09T15:17:52.495Z,44.30
2023-04-09T15:19:54.273Z,44.60
2023-04-09T15:21:56.551Z,44.70
2023-04-09T15:23:59.098Z,45.50
2023-04-09T15:26:00.887Z,44.80
2023-04-09T15:28:03.194Z,44.20
2023-04-09T15:30:05.352Z,44.50
2023-04-09T15:32:07.258Z,44.30
2023-04-09T15:34:09.062Z,44.70
2023-04-09T15:36:11.714Z,44.70
2023-04-09T15:38:13.457Z,45.30
2023-04-09T15:40:15.276Z,45.10
2023-04-09T15:42:22.349Z,45.80
2023-04-09T15:44:24.480Z,45.80
2023-04-09T15:46:26.188Z,44.70
2023-04-09T15:48:27.891Z,45.00
2023-04-09T15:50:29.693Z,44.10
2023-04-09T15:52:31.631Z,44.50
2023-04-09T15:54:33.332Z,45.00
2023-04-09T15:56:36.987Z,44.20
2023-04-09T15:58:38.689Z,44.50
2023-04-09T16:00:40.442Z,44.30
2023-04-09T16:02:42.212Z,44.20
2023-04-09T16:04:44.087Z,44.40
2023-04-09T16:06:46.232Z,43.60
2023-04-09T16:08:48.050Z,44.10
2023-04-09T16:10:49.889Z,44.80
2023-04-09T16:12:51.697Z,43.90
2023-04-09T16:14:53.629Z,43.60
2023-04-09T16:16:55.865Z,42.60
2023-04-09T16:18:57.571Z,42.80
2023-04-09T16:20:59.275Z,42.20
2023-04-09T16:23:01.276Z,42.70
2023-04-09T16:25:03.007Z,43.00
2023-04-09T16:27:04.846Z,43.10
2023-04-09T16:29:07.006Z,42.80
2023-04-09T16:31:08.752Z,42.80
2023-04-09T16:33:10.660Z,42.70
2023-04-09T16:35:12.447Z,42.60
2023-04-09T16:37:14.204Z,42.40
2023-04-09T16:39:16.147Z,42.90
2023-04-09T16:41:18.094Z,42.10
2023-04-09T16:43:20.129Z,41.80
2023-04-09T16:45:22.744Z,42.20
2023-04-09T16:47:24.845Z,42.40
2023-04-09T16:49:26.978Z,43.00
2023-04-09T16:51:29.071Z,42.80
2023-04-09T16:53:30.856Z,43.20
2023-04-09T16:55:32.954Z,43.30
2023-04-09T16:57:35.628Z,43.10
2023-04-09T16:59:37.807Z,43.30
2023-04-09T17:01:39.806Z,43.10
2023-04-09T17:03:42.077Z,43.40
2023-04-09T17:05:48.663Z,43.70
2023-04-09T17:07:50.608Z,43.00
2023-04-09T17:09:52.555Z,42.90
2023-04-09T17:11:54.246Z,43.10
2023-04-09T17:13:56.219Z,43.20
2023-04-09T17:15:58.354Z,43.00
2023-04-09T17:18:00.449Z,43.20
2023-04-09T17:20:05.730Z,43.40
2023-04-09T17:22:07.602Z,43.60
2023-04-09T17:24:09.337Z,43.60
2023-04-09T17:26:11.202Z,43.90
2023-04-09T17:28:13.225Z,43.90
2023-04-09T17:30:14.934Z,43.70
2023-04-09T17:32:16.655Z,44.00
2023-04-09T17:34:18.560Z,44.60
2023-04-09T17:36:20.659Z,44.10
2023-04-09T17:38:25.067Z,44.20
2023-04-09T17:40:27.301Z,44.30
2023-04-09T17:42:29.726Z,43.90
2023-04-09T17:44:35.044Z,43.90
2023-04-09T17:46:37.288Z,44.00
2023-04-09T17:48:39.182Z,44.20
2023-04-09T17:50:41.059Z,44.50
2023-04-09T17:52:42.999Z,44.60
2023-04-09T17:54:45.533Z,44.40
2023-04-09T17:56:47.351Z,44.50
2023-04-09T17:58:49.109Z,44.60
2023-04-09T18:00:52.824Z,44.60
2023-04-09T18:02:54.891Z,44.60
2023-04-09T18:04:59.175Z,44.90
2023-04-09T18:07:01.092Z,45.20
2023-04-09T18:09:03.301Z,45.30
2023-04-09T18:11:12.744Z,45.50
2023-04-09T18:13:15.421Z,45.50
2023-04-09T18:15:18.752Z,46.30
2023-04-09T18:17:20.740Z,45.70
2023-04-09T18:19:22.532Z,45.80
2023-04-09T18:21:24.771Z,45.90
2023-04-09T18:23:26.963Z,46.10
2023-04-09T18:25:28.753Z,46.20
2023-04-09T18:27:30.698Z,46.30
2023-04-09T18:29:32.411Z,46.30
2023-04-09T18:31:34.383Z,46.30
2023-04-09T18:33:36.359Z,46.50
2023-04-09T18:35:38.140Z,46.70
2023-04-09T18:37:39.861Z,46.70
2023-04-09T18:39:41.599Z,46.90
2023-04-09T18:41:43.599Z,47.50
2023-04-09T18:43:45.785Z,46.80
2023-04-09T18:45:49.440Z,47.00
2023-04-09T18:47:51.213Z,47.80
2023-04-09T18:49:52.995Z,47.20
2023-04-09T18:51:56.068Z,47.20
2023-04-09T18:54:00.462Z,47.30
2023-04-09T18:56:02.243Z,47.30
2023-04-09T18:58:08.393Z,47.50
2023-04-09T19:00:10.700Z,47.50
2023-04-09T19:02:12.422Z,47.50
2023-04-09T19:04:17.033Z,47.60
2023-04-09T19:06:19.572Z,47.70
2023-04-09T19:08:22.215Z,47.80
2023-04-09T19:10:23.986Z,47.90
2023-04-09T19:12:27.484Z,47.80
2023-04-09T19:14:29.263Z,47.90
2023-04-09T19:16:31.550Z,47.80
2023-04-09T19:18:34.211Z,47.90
2023-04-09T19:20:37.559Z,47.90
2023-04-09T19:22:39.465Z,48.00
2023-04-09T19:24:43.382Z,48.00
2023-04-09T19:26:45.171Z,48.00
2023-04-09T19:28:46.866Z,48.10
2023-04-09T19:30:52.135Z,48.20
2023-04-09T19:32:54.280Z,48.30
2023-04-09T19:34:56.212Z,48.40
2023-04-09T19:36:58.048Z,48.40
2023-04-09T19:38:59.767Z,48.50
2023-04-09T19:41:01.412Z,48.50
2023-04-09T19:43:03.181Z,48.60
2023-04-09T19:45:05.260Z,48.60
2023-04-09T19:47:07.047Z,48.50
2023-04-09T19:49:08.826Z,48.50
2023-04-09T19:51:17.668Z,48.60
2023-04-09T19:53:19.334Z,48.60
2023-04-09T19:55:21.122Z,48.70
2023-04-09T19:57:22.969Z,48.70
2023-04-09T19:59:24.690Z,48.70
2023-04-09T20:01:26.735Z,48.80
2023-04-09T20:03:28.701Z,48.90
2023-04-09T20:05:30.386Z,49.00
2023-04-09T20:07:32.618Z,49.00
2023-04-09T20:09:34.865Z,48.90
2023-04-09T20:11:36.571Z,48.90
2023-04-09T20:13:38.568Z,49.00
2023-04-09T20:15:40.242Z,48.90
2023-04-09T20:17:43.787Z,49.10
2023-04-09T20:19:45.541Z,49.00
2023-04-09T20:21:47.344Z,49.00
2023-04-09T20:23:49.040Z,49.10
2023-04-09T20:25:53.966Z,49.10
2023-04-09T20:27:55.900Z,49.10
2023-04-09T20:29:57.636Z,49.10
2023-04-09T20:31:59.445Z,49.30
2023-04-09T20:34:03.993Z,49.30
2023-04-09T20:36:13.566Z,50.10
2023-04-09T20:38:15.488Z,49.40
2023-04-09T20:40:17.182Z,49.50
2023-04-09T20:42:18.844Z,49.50
2023-04-09T20:44:20.494Z,49.80
2023-04-09T20:46:22.238Z,49.80
2023-04-09T20:48:24.050Z,49.70
2023-04-09T20:50:25.852Z,49.60
2023-04-09T20:52:30.673Z,49.70
2023-04-09T20:54:32.472Z,49.80
2023-04-09T20:56:34.455Z,49.90
2023-04-09T20:58:36.702Z,49.70
2023-04-09T21:00:38.435Z,49.80
2023-04-09T21:02:40.482Z,49.80
2023-04-09T21:04:42.498Z,49.70
2023-04-09T21:06:44.295Z,49.70
2023-04-09T21:08:45.943Z,49.80
2023-04-09T21:10:47.600Z,50.00
2023-04-09T21:12:49.439Z,50.20
2023-04-09T21:14:51.157Z,50.10
2023-04-09T21:16:52.909Z,50.00
2023-04-09T21:18:54.962Z,50.10
2023-04-09T21:20:56.881Z,50.20
2023-04-09T21:22:58.621Z,50.20
2023-04-09T21:25:00.434Z,50.30
2023-04-09T21:27:04.841Z,50.50
2023-04-09T21:29:06.505Z,50.40
2023-04-09T21:31:09.518Z,51.20
2023-04-09T21:33:11.216Z,50.40
2023-04-09T21:35:12.964Z,50.40
2023-04-09T21:37:14.684Z,50.50
2023-04-09T21:39:16.369Z,50.60
2023-04-09T21:41:18.150Z,50.60
2023-04-09T21:43:19.942Z,51.20
2023-04-09T21:45:21.920Z,50.60
2023-04-09T21:47:23.699Z,50.60
2023-04-09T21:49:25.398Z,50.50
2023-04-09T21:51:27.600Z,50.80
2023-04-09T21:53:30.901Z,50.80
2023-04-09T21:55:32.628Z,50.80
2023-04-09T21:57:34.346Z,50.80
2023-04-09T21:59:36.360Z,50.90
2023-04-09T22:01:38.116Z,51.00
2023-04-09T22:03:40.281Z,50.90
2023-04-09T22:05:42.879Z,50.70
2023-04-09T22:07:45.143Z,50.80
2023-04-09T22:09:47.360Z,50.80
2023-04-09T22:11:49.027Z,51.00
2023-04-09T22:13:50.672Z,51.00
2023-04-09T22:15:52.377Z,51.10
2023-04-09T22:17:54.223Z,51.10
2023-04-09T22:19:55.951Z,51.00
2023-04-09T22:21:58.038Z,51.00
2023-04-09T22:23:59.715Z,51.10
2023-04-09T22:26:02.039Z,51.10
2023-04-09T22:28:05.724Z,51.10
2023-04-09T22:30:07.923Z,51.20
2023-04-09T22:32:09.608Z,51.20
2023-04-09T22:34:20.898Z,51.30
2023-04-09T22:36:23.745Z,51.30
2023-04-09T22:38:25.997Z,51.10
2023-04-09T22:40:27.676Z,51.20
2023-04-09T22:42:29.340Z,51.10
2023-04-09T22:44:30.964Z,51.00
2023-04-09T22:46:34.629Z,51.10
2023-04-09T22:48:44.122Z,51.10
2023-04-09T22:50:47.204Z,51.10
2023-04-09T22:52:51.448Z,51.00
2023-04-09T22:54:53.103Z,51.00
2023-04-09T22:56:54.775Z,51.00
2023-04-09T22:58:56.383Z,51.00
2023-04-09T23:00:58.105Z,51.00
2023-04-09T23:03:00.081Z,50.90
2023-04-09T23:05:02.059Z,50.90
2023-04-09T23:07:03.973Z,50.90
2023-04-09T23:09:05.697Z,51.00
2023-04-09T23:11:07.348Z,50.90
2023-04-09T23:13:11.529Z,51.00
2023-04-09T23:15:13.264Z,51.00
2023-04-09T23:17:14.913Z,50.90
2023-04-09T23:19:16.815Z,50.90
2023-04-09T23:21:18.578Z,51.00
2023-04-09T23:23:20.203Z,50.90
2023-04-09T23:25:22.785Z,50.90
2023-04-09T23:27:28.391Z,50.90
2023-04-09T23:29:30.039Z,50.90
2023-04-09T23:31:32.008Z,51.00
2023-04-09T23:33:34.397Z,51.00
2023-04-09T23:35:36.098Z,51.10
2023-04-09T23:37:42.453Z,51.10
2023-04-09T23:39:45.252Z,51.10
2023-04-09T23:41:46.858Z,51.20
2023-04-09T23:43:48.477Z,51.20
2023-04-09T23:45:50.528Z,51.20
2023-04-09T23:47:52.989Z,51.30
2023-04-09T23:49:54.643Z,51.10
2023-04-09T23:51:56.324Z,51.10
2023-04-09T23:53:57.951Z,51.10
2023-04-09T23:55:59.594Z,51.20
2023-04-09T23:58:01.575Z,51.10
